Time;durP1;ratioP1;P1;durP2;ratioP2;P2;SDS_P1;SDS_P2;PMS_P1;PMS_P2;Temp;Humidity;BMP_temperature;BMP_pressure;BME280_temperature;BME280_humidity;BME280_pressure;Samples;Min_cycle;Max_cycle;Signal;HPM_P1;HPM_P2
2022/05/10 00:00:50;;;;;;;8.33;4.37;;;12.70;1.00;;;;;;4995048;28;20711;-69
2022/05/10 00:03:18;;;;;;;5.70;4.00;;;12.70;1.00;;;;;;4994955;28;20201;-69
2022/05/10 00:05:45;;;;;;;5.63;3.50;;;12.60;1.00;;;;;;4994016;28;20292;-69
2022/05/10 00:08:17;;;;;;;7.00;3.60;;;12.60;1.00;;;;;;4995117;28;20241;-69
2022/05/10 00:10:46;;;;;;;8.13;4.37;;;12.60;1.00;;;;;;4994670;28;20228;-69
2022/05/10 00:13:14;;;;;;;8.37;4.10;;;12.50;99.90;;;;;;4994854;28;20260;-69
2022/05/10 00:15:42;;;;;;;6.43;3.67;;;12.30;1.00;;;;;;4994666;28;20213;-69
2022/05/10 00:18:12;;;;;;;6.63;3.60;;;12.20;1.00;;;;;;4994985;28;20240;-69
2022/05/10 00:20:41;;;;;;;10.60;4.83;;;12.20;48.80;;;;;;4994420;28;20209;-69
2022/05/10 00:23:08;;;;;;;6.57;3.80;;;12.20;7.60;;;;;;4994719;28;20659;-69
2022/05/10 00:25:38;;;;;;;4.67;3.93;;;12.40;1.00;;;;;;4994436;28;20271;-69
2022/05/10 00:28:06;;;;;;;6.10;3.77;;;12.10;1.00;;;;;;4994779;28;20251;-69
2022/05/10 00:30:33;;;;;;;8.60;4.10;;;12.10;1.00;;;;;;4994300;28;20718;-69
2022/05/10 00:33:00;;;;;;;8.97;4.40;;;12.20;1.00;;;;;;4994475;28;20895;-69
2022/05/10 00:35:29;;;;;;;8.10;4.23;;;12.10;99.90;;;;;;4994365;28;20608;-69
2022/05/10 00:38:00;;;;;;;8.67;4.40;;;12.00;1.00;;;;;;4994477;28;20270;-69
2022/05/10 00:40:30;;;;;;;7.03;4.00;;;12.10;1.00;;;;;;4993876;28;20583;-69
2022/05/10 00:43:03;;;;;;;7.73;4.47;;;12.10;1.00;;;;;;4994289;28;20614;-69
2022/05/10 00:45:39;;;;;;;8.77;4.23;;;12.10;1.00;;;;;;4994163;28;20229;-69
2022/05/10 00:48:12;;;;;;;7.10;4.40;;;12.20;1.00;;;;;;4994239;28;20239;-69
2022/05/10 00:50:44;;;;;;;10.33;4.80;;;12.10;1.00;;;;;;4994039;28;20205;-69
2022/05/10 00:53:18;;;;;;;7.97;4.10;;;12.00;99.90;;;;;;4994084;28;20602;-69
2022/05/10 00:55:50;;;;;;;7.60;4.10;;;12.30;1.00;;;;;;4993992;28;20201;-69
2022/05/10 00:58:26;;;;;;;8.37;4.37;;;12.40;1.00;;;;;;4994052;28;20252;-69
2022/05/10 01:00:55;;;;;;;7.43;4.40;;;12.40;99.90;;;;;;4993728;28;20240;-69
2022/05/10 01:03:26;;;;;;;7.10;4.20;;;12.40;1.00;;;;;;4993970;28;20254;-69
2022/05/10 01:06:02;;;;;;;5.53;4.23;;;12.30;1.00;;;;;;4993728;28;20291;-69
2022/05/10 01:08:35;;;;;;;7.60;4.13;;;12.40;99.90;;;;;;4993844;28;20205;-69
2022/05/10 01:11:06;;;;;;;6.57;3.90;;;12.40;99.90;;;;;;4993435;28;20743;-69
2022/05/10 01:13:40;;;;;;;6.40;4.37;;;12.40;21.80;;;;;;4993761;28;20618;-69
2022/05/10 01:16:10;;;;;;;6.90;3.67;;;12.30;99.90;;;;;;4993124;28;20707;-69
2022/05/10 01:18:38;;;;;;;7.43;4.63;;;12.30;1.00;;;;;;4993794;28;20211;-69
2022/05/10 01:21:23;;;;;;;7.53;4.13;;;12.20;1.00;;;;;;4993543;28;20671;-69
2022/05/10 01:24:31;;;;;;;5.20;4.07;;;12.10;99.90;;;;;;4993771;28;20248;-69
2022/05/10 01:27:21;;;;;;;5.43;3.80;;;12.00;99.90;;;;;;4993434;28;20201;-69
2022/05/10 01:29:55;;;;;;;9.07;4.07;;;12.10;99.90;;;;;;4993279;28;20201;-69
2022/05/10 01:35:20;;;;;;;6.47;4.30;;;12.10;99.90;;;;;;4993311;28;20199;-69
2022/05/10 01:37:51;;;;;;;6.63;4.63;;;12.00;99.90;;;;;;4993490;28;20605;-69
2022/05/10 01:40:26;;;;;;;6.73;4.27;;;12.00;99.90;;;;;;4992955;28;20208;-69
2022/05/10 01:42:59;;;;;;;5.10;3.70;;;11.90;99.90;;;;;;4993491;28;20205;-69
2022/05/10 01:45:34;;;;;;;8.47;4.63;;;12.00;1.00;;;;;;4993050;28;20224;-69
2022/05/10 01:48:04;;;;;;;6.97;4.20;;;12.20;99.90;;;;;;4993275;28;20615;-69
2022/05/10 01:50:37;;;;;;;8.30;4.30;;;12.20;99.90;;;;;;4993061;28;20197;-69
2022/05/10 01:53:08;;;;;;;8.77;4.30;;;12.20;99.90;;;;;;4993213;28;20251;-69
2022/05/10 01:55:37;;;;;;;7.07;4.30;;;12.30;99.90;;;;;;4992827;28;20691;-69
2022/05/10 01:58:09;;;;;;;8.13;5.00;;;12.30;1.00;;;;;;4993121;28;20197;-69
2022/05/10 02:00:39;;;;;;;7.67;4.47;;;12.30;1.00;;;;;;4993194;28;20219;-69
2022/05/10 02:03:13;;;;;;;5.87;4.73;;;12.40;99.90;;;;;;4993012;28;20211;-69
2022/05/10 02:05:48;;;;;;;6.00;3.70;;;12.60;99.90;;;;;;4993011;28;20278;-69
2022/05/10 02:08:25;;;;;;;6.33;4.53;;;13.10;1.00;;;;;;4992929;28;20204;-69
2022/05/10 02:10:53;;;;;;;5.03;3.90;;;13.20;1.00;;;;;;4992630;28;20204;-69
2022/05/10 02:13:25;;;;;;;6.83;4.50;;;13.20;1.00;;;;;;4993157;28;20209;-69
2022/05/10 02:15:58;;;;;;;7.23;3.90;;;13.10;99.90;;;;;;4992907;28;20240;-69
2022/05/10 02:18:32;;;;;;;8.00;4.07;;;13.20;1.00;;;;;;4993048;28;20243;-69
2022/05/10 02:21:06;;;;;;;5.00;3.90;;;13.40;99.90;;;;;;4992930;28;20205;-69
2022/05/10 02:23:40;;;;;;;6.07;4.17;;;13.40;43.40;;;;;;4992764;28;20200;-69
2022/05/10 02:26:10;;;;;;;6.43;3.57;;;13.60;1.00;;;;;;4992824;28;20225;-69
2022/05/10 02:28:43;;;;;;;6.87;3.60;;;13.50;1.00;;;;;;4994924;28;20201;-69
2022/05/10 02:31:15;;;;;;;5.83;4.07;;;14.00;1.00;;;;;;4996620;28;20247;-69
2022/05/10 02:33:43;;;;;;;5.70;3.50;;;14.30;1.00;;;;;;4996634;28;20205;-69
2022/05/10 02:36:10;;;;;;;7.07;3.67;;;14.40;1.00;;;;;;4996807;28;20201;-69
2022/05/10 02:38:39;;;;;;;5.67;3.27;;;14.40;1.00;;;;;;4996588;28;20205;-69
2022/05/10 02:41:11;;;;;;;6.70;3.40;;;14.50;1.00;;;;;;4996456;28;20256;-69
2022/05/10 02:43:45;;;;;;;6.47;3.67;;;14.40;1.00;;;;;;4996423;28;20260;-69
2022/05/10 02:46:14;;;;;;;5.57;3.40;;;14.30;1.00;;;;;;4996450;28;20229;-69
2022/05/10 02:48:41;;;;;;;5.57;3.53;;;14.20;1.00;;;;;;4996502;28;20252;-69
2022/05/10 02:51:08;;;;;;;6.57;3.83;;;14.10;1.00;;;;;;4996224;28;20647;-69
2022/05/10 02:53:35;;;;;;;7.70;4.17;;;14.10;1.00;;;;;;4996205;28;20204;-69
2022/05/10 02:56:05;;;;;;;10.83;4.37;;;13.90;99.90;;;;;;4996292;28;20209;-69
2022/05/10 02:58:36;;;;;;;6.30;4.40;;;13.70;1.00;;;;;;4996124;28;20201;-69
2022/05/10 03:01:09;;;;;;;9.40;4.10;;;13.50;1.00;;;;;;4995977;28;20244;-69
2022/05/10 03:03:37;;;;;;;8.33;4.03;;;13.50;99.90;;;;;;4996100;28;20256;-69
2022/05/10 03:06:05;;;;;;;8.27;4.80;;;13.40;1.00;;;;;;4996130;28;20310;-69
2022/05/10 03:08:32;;;;;;;8.07;4.20;;;13.30;1.00;;;;;;4995838;28;20247;-69
2022/05/10 03:10:59;;;;;;;8.00;4.43;;;13.20;99.90;;;;;;4995795;28;20205;-69
2022/05/10 03:13:26;;;;;;;5.60;3.93;;;13.30;1.00;;;;;;4995830;28;20205;-69
2022/05/10 03:15:53;;;;;;;6.37;4.20;;;13.20;50.30;;;;;;4996016;28;20259;-69
2022/05/10 03:18:21;;;;;;;5.67;3.73;;;13.50;99.90;;;;;;4995793;28;20197;-69
2022/05/10 03:20:49;;;;;;;8.20;3.87;;;13.70;1.00;;;;;;4995585;28;20205;-69
2022/05/10 03:23:16;;;;;;;11.73;4.03;;;13.70;1.00;;;;;;4995556;28;20205;-69
2022/05/10 03:25:43;;;;;;;6.20;3.73;;;13.90;99.90;;;;;;4995770;28;20283;-69
2022/05/10 03:28:10;;;;;;;7.87;3.80;;;14.30;1.00;;;;;;4995599;28;20205;-69
2022/05/10 03:30:37;;;;;;;6.20;3.63;;;14.30;1.00;;;;;;4995467;28;20648;-69
2022/05/10 03:33:05;;;;;;;10.67;3.83;;;14.10;1.00;;;;;;4995661;28;20197;-69
2022/05/10 03:35:32;;;;;;;6.43;3.80;;;14.00;99.90;;;;;;4995598;28;20213;-69
2022/05/10 03:38:00;;;;;;;7.30;3.87;;;14.70;99.90;;;;;;4995396;28;20224;-69
2022/05/10 03:40:28;;;;;;;7.07;4.13;;;14.50;1.00;;;;;;4994907;28;20216;-69
2022/05/10 03:42:55;;;;;;;6.57;4.43;;;14.50;1.00;;;;;;4995329;28;20205;-69
2022/05/10 03:45:24;;;;;;;7.43;4.30;;;14.20;1.00;;;;;;4995424;28;20275;-69
2022/05/10 03:47:53;;;;;;;10.73;5.03;;;14.40;1.00;;;;;;4995341;28;20209;-69
2022/05/10 03:50:23;;;;;;;12.57;4.70;;;14.40;1.00;;;;;;4995083;28;20185;-69
2022/05/10 03:52:50;;;;;;;7.87;3.60;;;14.40;1.00;;;;;;4995278;28;20201;-69
2022/05/10 03:55:21;;;;;;;9.93;4.17;;;14.40;1.00;;;;;;4995135;28;20244;-69
2022/05/10 03:57:48;;;;;;;9.93;3.77;;;14.20;99.90;;;;;;4995228;28;20201;-69
2022/05/10 04:00:17;;;;;;;6.80;3.57;;;14.20;1.00;;;;;;4994868;28;20243;-69
2022/05/10 04:02:45;;;;;;;8.27;4.23;;;14.40;1.00;;;;;;4995009;28;20255;-69
2022/05/10 04:05:14;;;;;;;7.63;3.80;;;14.70;1.00;;;;;;4994932;28;20629;-69
2022/05/10 04:07:41;;;;;;;5.13;3.73;;;15.00;99.90;;;;;;4995039;28;20213;-69
2022/05/10 04:10:10;;;;;;;6.67;4.40;;;15.10;1.00;;;;;;4994661;28;20201;-69
2022/05/10 04:12:39;;;;;;;7.33;3.97;;;15.10;95.00;;;;;;4994878;28;20209;-69
2022/05/10 04:15:09;;;;;;;6.83;3.60;;;15.30;1.00;;;;;;4994602;28;20205;-69
2022/05/10 04:17:36;;;;;;;5.17;3.53;;;15.40;1.00;;;;;;4994758;28;20212;-69
2022/05/10 04:20:04;;;;;;;6.00;3.60;;;15.60;99.90;;;;;;4994651;28;20562;-69
2022/05/10 04:22:31;;;;;;;7.50;3.23;;;15.60;99.90;;;;;;4995096;28;20696;-69
2022/05/10 04:24:58;;;;;;;12.10;4.20;;;15.60;1.00;;;;;;4994585;28;20200;-69
2022/05/10 04:27:25;;;;;;;7.17;3.30;;;15.60;1.00;;;;;;4994535;28;20225;-69
2022/05/10 04:29:53;;;;;;;6.63;3.67;;;15.70;1.00;;;;;;4994258;28;20205;-69
2022/05/10 04:32:21;;;;;;;5.20;3.40;;;15.90;99.90;;;;;;4994568;28;20546;-69
2022/05/10 04:34:48;;;;;;;6.67;3.13;;;16.00;84.40;;;;;;4994553;28;20571;-69
2022/05/10 04:37:15;;;;;;;9.27;3.97;;;15.90;1.00;;;;;;4994642;28;20636;-69
2022/05/10 04:42:26;;;;;;;6.43;3.60;;;15.60;1.00;;;;;;4994526;28;20726;-69
2022/05/10 04:44:54;;;;;;;5.27;3.53;;;15.40;1.00;;;;;;4994181;28;20660;-69
2022/05/10 04:47:21;;;;;;;8.38;3.40;;;15.30;1.00;;;;;;4994234;28;20275;-69
2022/05/10 04:49:48;;;;;;;6.40;3.40;;;15.20;1.00;;;;;;4993708;28;20660;-69
2022/05/10 04:52:15;;;;;;;10.30;3.80;;;15.20;1.00;;;;;;4993621;28;20724;-69
2022/05/10 04:54:42;;;;;;;7.47;3.33;;;15.10;1.00;;;;;;4994048;28;20204;-69
2022/05/10 04:57:09;;;;;;;7.40;3.83;;;15.10;1.00;;;;;;4994040;28;20619;-69
2022/05/10 04:59:36;;;;;;;8.57;3.80;;;15.10;1.00;;;;;;4993978;28;20460;-69
2022/05/10 05:02:05;;;;;;;5.80;3.70;;;15.10;1.00;;;;;;4994067;28;20616;-69
2022/05/10 05:04:32;;;;;;;6.33;3.50;;;15.10;99.90;;;;;;4993797;28;20205;-69
2022/05/10 05:06:59;;;;;;;10.50;4.13;;;15.10;1.00;;;;;;4993850;28;20275;-69
2022/05/10 05:09:26;;;;;;;10.43;4.10;;;15.10;1.00;;;;;;4993541;28;20190;-69
2022/05/10 05:11:52;;;;;;;8.37;3.97;;;15.00;1.00;;;;;;4993644;28;20232;-69
2022/05/10 05:14:19;;;;;;;6.77;3.90;;;15.10;1.00;;;;;;4993804;28;20197;-69
2022/05/10 05:16:46;;;;;;;7.23;4.00;;;15.20;99.90;;;;;;4993610;28;20550;-69
2022/05/10 05:19:15;;;;;;;5.93;3.40;;;15.20;99.90;;;;;;4993482;28;20201;-69
2022/05/10 05:21:42;;;;;;;8.27;3.63;;;15.50;1.00;;;;;;4993415;28;20259;-69
2022/05/10 05:24:11;;;;;;;5.67;3.53;;;15.80;1.00;;;;;;4993787;28;20645;-69
2022/05/10 05:26:38;;;;;;;5.20;3.65;;;16.00;1.00;;;;;;4993549;28;20680;-69
2022/05/10 05:29:05;;;;;;;8.13;3.70;;;16.10;1.00;;;;;;4993555;28;20201;-69
2022/05/10 05:31:33;;;;;;;7.13;3.57;;;16.20;99.90;;;;;;4993312;28;20620;-69
2022/05/10 05:34:00;;;;;;;8.53;4.13;;;16.40;40.20;;;;;;4993584;28;20251;-69
2022/05/10 05:36:28;;;;;;;13.13;3.73;;;16.30;1.00;;;;;;4993424;28;20241;-69
2022/05/10 05:38:55;;;;;;;9.80;4.18;;;16.70;1.00;;;;;;4993526;28;20734;-69
2022/05/10 05:41:22;;;;;;;8.82;4.57;;;16.50;1.00;;;;;;4993120;28;20260;-69
2022/05/10 05:43:49;;;;;;;7.45;3.47;;;16.80;1.00;;;;;;4993346;28;20201;-69
2022/05/10 05:46:16;;;;;;;5.80;3.58;;;17.10;1.00;;;;;;4993091;28;20221;-69
2022/05/10 05:48:43;;;;;;;9.63;4.00;;;17.10;99.90;;;;;;4993170;28;20185;-69
2022/05/10 05:51:10;;;;;;;7.55;4.18;;;17.20;1.00;;;;;;4992977;28;20719;-69
2022/05/10 05:53:39;;;;;;;9.13;3.83;;;17.30;1.00;;;;;;4993148;28;20671;-69
2022/05/10 05:56:08;;;;;;;9.02;3.53;;;17.20;99.90;;;;;;4992925;28;20201;-69
2022/05/10 05:58:35;;;;;;;5.47;3.50;;;17.30;99.90;;;;;;4993313;28;20217;-69
2022/05/10 06:01:03;;;;;;;5.57;3.38;;;17.40;1.00;;;;;;4992727;28;20205;-69
2022/05/10 06:03:30;;;;;;;5.97;3.83;;;17.50;1.00;;;;;;4992909;28;20278;-69
2022/05/10 06:05:57;;;;;;;5.18;3.75;;;17.80;99.90;;;;;;4993033;28;20633;-69
2022/05/10 06:08:24;;;;;;;4.60;3.53;;;17.90;1.00;;;;;;4993223;28;20714;-69
2022/05/10 06:10:52;;;;;;;7.65;4.03;;;17.90;1.00;;;;;;4992590;28;20615;-69
2022/05/10 06:13:21;;;;;;;6.07;3.50;;;18.00;99.90;;;;;;4993283;28;20606;-69
2022/05/10 06:15:49;;;;;;;3.88;3.55;;;18.10;99.90;;;;;;4993123;28;20200;-69
2022/05/10 06:18:16;;;;;;;8.07;3.72;;;18.20;99.90;;;;;;4993382;28;20223;-69
2022/05/10 06:20:43;;;;;;;6.55;3.42;;;18.20;99.90;;;;;;4992825;28;20574;-69
2022/05/10 06:23:10;;;;;;;5.65;3.85;;;18.10;1.00;;;;;;4992703;28;20201;-69
2022/05/10 06:25:37;;;;;;;6.97;3.40;;;18.10;1.00;;;;;;4992901;28;20201;-69
2022/05/10 06:28:06;;;;;;;5.28;3.58;;;18.20;1.00;;;;;;4992638;28;20271;-69
2022/05/10 06:30:33;;;;;;;7.75;3.78;;;18.20;1.00;;;;;;4992710;28;20196;-69
2022/05/10 06:33:01;;;;;;;5.03;3.50;;;18.40;1.00;;;;;;4992602;28;20255;-69
2022/05/10 06:35:28;;;;;;;6.20;3.63;;;18.60;99.90;;;;;;4992807;28;20213;-69
2022/05/10 06:40:40;;;;;;;6.03;3.40;;;19.30;1.00;;;;;;4992492;28;20211;-69
2022/05/10 06:43:09;;;;;;;3.55;3.13;;;19.40;1.00;;;;;;4992453;28;20201;-69
2022/05/10 06:45:37;;;;;;;6.10;3.00;;;19.40;1.00;;;;;;4992690;28;20201;-69
2022/05/10 06:48:04;;;;;;;5.07;3.20;;;19.50;99.90;;;;;;4992507;28;20264;-69
2022/05/10 06:50:31;;;;;;;9.80;4.13;;;19.60;99.90;;;;;;4992365;28;20197;-69
2022/05/10 06:53:00;;;;;;;6.75;3.67;;;19.80;99.90;;;;;;4992401;28;20202;-69
2022/05/10 06:55:28;;;;;;;5.57;3.35;;;19.70;99.90;;;;;;4992520;28;20668;-69
2022/05/10 06:57:55;;;;;;;5.75;3.63;;;19.80;99.90;;;;;;4992436;28;20260;-69
2022/05/10 07:00:24;;;;;;;3.90;3.30;;;19.90;99.90;;;;;;4992365;28;20202;-69
2022/05/10 07:02:51;;;;;;;4.05;3.15;;;20.20;99.90;;;;;;4992304;28;20201;-69
2022/05/10 07:05:19;;;;;;;5.65;3.50;;;20.10;1.00;;;;;;4992520;28;20244;-69
2022/05/10 07:07:47;;;;;;;6.57;3.72;;;20.20;1.00;;;;;;4992202;28;20276;-69
2022/05/10 07:10:18;;;;;;;5.32;3.53;;;20.50;1.00;;;;;;4992175;28;20734;-69
2022/05/10 07:12:45;;;;;;;5.95;3.55;;;20.30;1.00;;;;;;4992479;28;20197;-69
2022/05/10 07:15:16;;;;;;;4.93;3.58;;;20.30;1.00;;;;;;4995269;28;20256;-69
2022/05/10 07:17:45;;;;;;;5.55;3.47;;;20.40;1.00;;;;;;4995783;28;20276;-69
2022/05/10 07:20:14;;;;;;;5.95;4.05;;;20.50;1.00;;;;;;4995669;28;20304;-69
2022/05/10 07:22:41;;;;;;;5.30;3.78;;;20.50;1.00;;;;;;4995681;28;20648;-69
2022/05/10 07:25:11;;;;;;;6.50;3.45;;;20.60;1.00;;;;;;4995837;28;20267;-69
2022/05/10 07:27:39;;;;;;;4.85;3.67;;;20.70;1.00;;;;;;4995593;28;20746;-69
2022/05/10 07:30:07;;;;;;;5.22;3.65;;;21.00;1.00;;;;;;4995530;28;20245;-69
2022/05/10 07:32:34;;;;;;;6.20;3.58;;;21.20;1.00;;;;;;4995550;28;20205;-69
2022/05/10 07:35:03;;;;;;;7.10;3.70;;;21.10;1.00;;;;;;4995591;28;20201;-69
2022/05/10 07:37:30;;;;;;;5.15;3.90;;;21.20;1.00;;;;;;4995826;28;20539;-69
2022/05/10 07:39:58;;;;;;;6.72;3.58;;;21.30;1.00;;;;;;4995196;28;20244;-70
2022/05/10 07:42:25;;;;;;;6.88;3.85;;;21.10;1.00;;;;;;4995769;28;20201;-69
2022/05/10 07:44:52;;;;;;;7.68;3.75;;;21.00;1.00;;;;;;4995535;28;20244;-69
2022/05/10 07:47:19;;;;;;;5.75;3.30;;;21.20;1.00;;;;;;4995320;28;20259;-69
2022/05/10 07:49:46;;;;;;;5.78;3.42;;;21.30;1.00;;;;;;4994998;28;20197;-70
2022/05/10 07:52:15;;;;;;;5.28;3.65;;;21.30;1.00;;;;;;4995298;28;20648;-69
2022/05/10 07:54:42;;;;;;;8.07;3.70;;;21.10;1.00;;;;;;4995071;28;20252;-69
2022/05/10 07:57:09;;;;;;;6.22;3.55;;;21.00;1.00;;;;;;4995367;28;20660;-69
2022/05/10 07:59:36;;;;;;;5.88;3.42;;;20.90;1.00;;;;;;4994888;28;20243;-69
2022/05/10 08:02:04;;;;;;;6.40;3.60;;;20.90;1.00;;;;;;4995022;28;20209;-69
2022/05/10 08:04:31;;;;;;;7.65;3.70;;;20.90;1.00;;;;;;4994910;28;20189;-69
2022/05/10 08:06:58;;;;;;;8.05;3.85;;;20.80;1.00;;;;;;4994960;28;20217;-69
2022/05/10 08:09:27;;;;;;;6.65;3.95;;;20.70;1.00;;;;;;4995038;28;20236;-69
2022/05/10 08:11:54;;;;;;;5.25;4.10;;;20.60;1.00;;;;;;4995096;28;20336;-69
2022/05/10 08:14:21;;;;;;;5.75;3.50;;;20.60;1.00;;;;;;4995172;28;20494;-69
2022/05/10 08:16:48;;;;;;;8.05;3.80;;;20.70;1.00;;;;;;4994781;28;20253;-69
2022/05/10 08:19:15;;;;;;;4.85;3.80;;;20.70;1.00;;;;;;4994541;28;20193;-69
2022/05/10 08:21:42;;;;;;;6.90;3.85;;;20.70;1.00;;;;;;4994940;28;20219;-69
2022/05/10 08:24:09;;;;;;;5.50;3.92;;;20.70;1.00;;;;;;4994622;28;20691;-69
2022/05/10 08:26:37;;;;;;;8.35;4.20;;;20.70;1.00;;;;;;4993655;28;20205;-69
2022/05/10 08:29:05;;;;;;;5.63;3.90;;;21.00;1.00;;;;;;4994533;28;20263;-69
2022/05/10 08:31:31;;;;;;;4.75;3.85;;;21.20;1.00;;;;;;4994622;28;20517;-69
2022/05/10 08:34:00;;;;;;;6.68;3.92;;;21.60;1.00;;;;;;4994619;28;20462;-69
2022/05/10 08:36:27;;;;;;;5.55;3.60;;;21.80;1.00;;;;;;4994963;28;20209;-69
2022/05/10 08:38:54;;;;;;;5.05;3.60;;;21.70;1.00;;;;;;4994146;28;20743;-69
2022/05/10 08:41:25;;;;;;;6.57;4.40;;;21.80;1.00;;;;;;4994353;28;20353;-69
2022/05/10 08:43:59;;;;;;;8.02;3.90;;;21.90;1.00;;;;;;4994222;28;20613;-69
2022/05/10 08:46:32;;;;;;;8.43;4.03;;;21.80;1.00;;;;;;4994342;28;20242;-69
2022/05/10 08:49:02;;;;;;;5.57;4.15;;;21.80;1.00;;;;;;4994280;28;20224;-69
2022/05/10 08:51:31;;;;;;;5.60;4.07;;;22.20;1.00;;;;;;4994241;28;20182;-69
2022/05/10 08:53:59;;;;;;;6.82;3.90;;;22.30;1.00;;;;;;4994163;28;20691;-69
2022/05/10 08:56:31;;;;;;;9.73;3.75;;;22.70;1.00;;;;;;4993926;28;20205;-69
2022/05/10 08:59:07;;;;;;;6.82;4.35;;;22.90;1.00;;;;;;4993926;28;20252;-69
2022/05/10 09:01:37;;;;;;;7.97;4.38;;;23.10;1.00;;;;;;4993945;28;20192;-69
2022/05/10 09:04:29;;;;;;;5.60;3.80;;;23.40;1.00;;;;;;4993957;28;20247;-69
2022/05/10 09:07:05;;;;;;;6.93;3.97;;;23.50;1.00;;;;;;4993830;28;20692;-69
2022/05/10 09:09:36;;;;;;;6.22;3.97;;;23.80;99.90;;;;;;4993550;28;20287;-69
2022/05/10 09:12:11;;;;;;;6.60;4.43;;;24.00;99.90;;;;;;4993848;28;20224;-69
2022/05/10 09:14:50;;;;;;;5.75;4.10;;;23.90;99.90;;;;;;4993614;28;20266;-69
2022/05/10 09:17:20;;;;;;;7.03;4.30;;;23.90;99.90;;;;;;4993687;28;20208;-69
2022/05/10 09:19:47;;;;;;;8.98;4.10;;;23.70;99.90;;;;;;4993427;28;20229;-73
2022/05/10 09:22:26;;;;;;;6.50;4.18;;;23.80;99.90;;;;;;4993712;28;20208;-74
2022/05/10 09:24:56;;;;;;;5.32;4.00;;;23.70;99.90;;;;;;4993603;28;20201;-73
2022/05/10 09:27:29;;;;;;;5.32;4.13;;;23.60;99.90;;;;;;4993491;28;20279;-73
2022/05/10 09:29:57;;;;;;;6.57;4.28;;;23.50;99.90;;;;;;4993361;28;20279;-66
2022/05/10 09:35:15;;;;;;;6.50;4.13;;;24.10;99.90;;;;;;4993429;28;20219;-67
2022/05/10 09:37:45;;;;;;;6.53;4.15;;;24.40;99.90;;;;;;4993236;28;20213;-67
2022/05/10 09:40:26;;;;;;;7.80;4.55;;;25.00;99.90;;;;;;4993015;28;20216;-67
2022/05/10 09:43:11;;;;;;;8.07;3.85;;;25.00;99.90;;;;;;4993317;28;20255;-67
2022/05/10 09:45:39;;;;;;;5.65;4.40;;;24.70;99.90;;;;;;4993214;28;20582;-66
2022/05/10 09:48:16;;;;;;;8.77;4.63;;;25.00;99.90;;;;;;4993124;28;20279;-67
2022/05/10 09:50:45;;;;;;;5.93;4.50;;;24.90;99.90;;;;;;4992760;28;20209;-67
2022/05/10 09:53:20;;;;;;;6.68;4.40;;;24.40;99.90;;;;;;4993288;28;20204;-67
2022/05/10 09:56:00;;;;;;;5.38;4.40;;;25.20;99.90;;;;;;4992980;28;20571;-67
2022/05/10 09:58:30;;;;;;;4.65;4.15;;;25.50;99.90;;;;;;4993334;28;20240;-67
2022/05/10 10:01:00;;;;;;;6.18;4.63;;;25.80;99.90;;;;;;4975330;28;20205;-67
2022/05/10 10:03:29;;;;;;;6.85;4.32;;;25.90;99.90;;;;;;4993451;28;20216;-67
2022/05/10 10:06:12;;;;;;;6.18;4.30;;;25.80;99.90;;;;;;4992976;28;20197;-67
2022/05/10 10:08:42;;;;;;;6.07;4.40;;;26.20;99.90;;;;;;4993192;28;20267;-67
2022/05/10 10:11:27;;;;;;;5.50;4.13;;;26.80;99.90;;;;;;4992816;28;20239;-67
2022/05/10 10:13:56;;;;;;;6.82;4.28;;;26.90;99.90;;;;;;4992882;28;20263;-67
2022/05/10 10:16:27;;;;;;;5.97;4.38;;;26.50;99.90;;;;;;4992876;28;20208;-67
2022/05/10 10:18:58;;;;;;;5.18;4.38;;;26.50;99.90;;;;;;4992754;28;20193;-67
2022/05/10 10:21:33;;;;;;;6.05;4.15;;;26.80;99.90;;;;;;4993024;28;20205;-67
2022/05/10 10:24:01;;;;;;;7.18;5.05;;;26.80;99.90;;;;;;4992618;28;20200;-67
2022/05/10 10:26:36;;;;;;;6.50;4.38;;;26.70;99.90;;;;;;4992872;28;20742;-67
2022/05/10 10:29:13;;;;;;;4.55;4.10;;;26.60;99.90;;;;;;4992474;28;20256;-67
2022/05/10 10:31:45;;;;;;;7.13;4.07;;;26.70;99.90;;;;;;4992968;28;20205;-67
2022/05/10 10:34:19;;;;;;;5.82;4.20;;;26.60;99.90;;;;;;4992757;28;20264;-67
2022/05/10 10:36:53;;;;;;;5.63;4.10;;;26.70;99.90;;;;;;4992961;28;20244;-67
2022/05/10 10:39:29;;;;;;;5.03;4.53;;;26.90;99.90;;;;;;4992557;28;20197;-67
2022/05/10 10:42:04;;;;;;;7.43;4.30;;;27.20;99.90;;;;;;4992598;28;20205;-67
2022/05/10 10:44:34;;;;;;;7.68;4.65;;;27.80;99.90;;;;;;4992686;28;20247;-67
2022/05/10 10:47:13;;;;;;;6.43;4.35;;;27.60;99.90;;;;;;4992498;28;20285;-67
2022/05/10 10:49:47;;;;;;;7.35;4.47;;;27.60;99.90;;;;;;4994723;28;20753;-67
2022/05/10 10:52:17;;;;;;;6.72;4.13;;;27.60;99.90;;;;;;4996521;28;20660;-67
2022/05/10 10:54:45;;;;;;;6.07;4.30;;;27.70;99.90;;;;;;4996626;28;20631;-67
2022/05/10 10:57:36;;;;;;;6.35;4.40;;;26.90;99.90;;;;;;4996047;28;20207;-67
2022/05/10 11:00:11;;;;;;;5.70;4.45;;;26.70;99.90;;;;;;4996020;28;20264;-67
2022/05/10 11:03:01;;;;;;;6.82;4.43;;;26.70;99.90;;;;;;4995991;28;20208;-67
2022/05/10 11:06:04;;;;;;;4.72;4.25;;;26.80;99.90;;;;;;4996285;28;20750;-67
2022/05/10 11:08:47;;;;;;;4.72;4.30;;;26.70;99.90;;;;;;4983539;28;20229;-67
2022/05/10 11:11:21;;;;;;;4.85;4.45;;;27.10;99.90;;;;;;4996158;28;20197;-67
2022/05/10 11:14:00;;;;;;;5.72;4.30;;;27.30;99.90;;;;;;4995966;28;20252;-67
2022/05/10 11:16:38;;;;;;;5.22;4.45;;;27.70;99.90;;;;;;4995999;28;20208;-67
2022/05/10 11:19:29;;;;;;;5.47;4.13;;;27.60;99.90;;;;;;4995715;28;20247;-67
2022/05/10 11:22:04;;;;;;;6.50;4.50;;;27.20;99.90;;;;;;4996151;28;20201;-67
2022/05/10 11:24:40;;;;;;;4.45;3.90;;;27.20;99.90;;;;;;4995846;28;20472;-67
2022/05/10 11:27:22;;;;;;;5.55;4.72;;;27.20;99.90;;;;;;4995947;28;20284;-67
2022/05/10 11:30:03;;;;;;;4.30;3.90;;;27.20;99.90;;;;;;4978421;28;20209;-67
2022/05/10 11:32:48;;;;;;;6.43;4.20;;;27.30;99.90;;;;;;4995969;28;20215;-67
2022/05/10 11:35:28;;;;;;;7.65;4.20;;;27.20;99.90;;;;;;4995908;28;20722;-66
2022/05/10 11:38:01;;;;;;;5.63;4.13;;;26.80;99.90;;;;;;4995505;28;20615;-67
2022/05/10 11:40:47;;;;;;;7.78;4.68;;;26.90;99.90;;;;;;4995293;28;20220;-67
2022/05/10 11:43:40;;;;;;;4.40;4.00;;;26.90;99.90;;;;;;4995511;28;20520;-67
2022/05/10 11:46:44;;;;;;;4.35;3.80;;;27.40;99.90;;;;;;4995488;28;20651;-67
2022/05/10 11:49:29;;;;;;;4.75;3.88;;;27.20;99.90;;;;;;4994984;28;20267;-67
2022/05/10 11:52:22;;;;;;;5.07;4.45;;;27.30;99.90;;;;;;4995353;28;20205;-67
2022/05/10 11:55:05;;;;;;;9.80;4.82;;;27.40;99.90;;;;;;4995177;28;20259;-67
2022/05/10 11:57:34;;;;;;;7.13;4.88;;;27.60;99.90;;;;;;4995283;28;20578;-67
2022/05/10 12:00:34;;;;;;;5.82;4.53;;;27.80;99.90;;;;;;4994692;28;20205;-66
2022/05/10 12:03:02;;;;;;;4.93;4.43;;;27.80;99.90;;;;;;4995067;28;20607;-67
2022/05/10 12:05:31;;;;;;;5.13;4.22;;;28.00;99.90;;;;;;4995242;28;20205;-67
2022/05/10 12:08:01;;;;;;;7.13;4.35;;;28.00;99.90;;;;;;4994950;28;20225;-67
2022/05/10 12:10:49;;;;;;;5.18;4.47;;;28.40;99.90;;;;;;4994979;28;20209;-67
2022/05/10 12:22:06;;;;;;;10.18;4.75;;;28.10;99.90;;;;;;4994957;28;20585;-67
2022/05/10 12:24:37;;;;;;;6.10;4.60;;;28.20;99.90;;;;;;4994762;28;20555;-67
2022/05/10 12:27:34;;;;;;;6.30;4.40;;;27.70;99.90;;;;;;4994790;28;20201;-67
2022/05/10 12:30:10;;;;;;;8.50;4.93;;;27.90;99.90;;;;;;4994316;28;20676;-67
2022/05/10 12:32:47;;;;;;;8.02;4.57;;;27.50;99.90;;;;;;4994663;28;20251;-67
2022/05/10 12:35:47;;;;;;;8.02;5.10;;;28.20;99.90;;;;;;4994344;28;20204;-66
2022/05/10 12:38:34;;;;;;;6.03;4.50;;;27.50;99.90;;;;;;4962046;28;20275;-67
2022/05/10 12:41:10;;;;;;;5.28;4.28;;;27.90;99.90;;;;;;4993966;28;20271;-67
2022/05/10 12:44:07;;;;;;;4.88;4.10;;;27.90;99.90;;;;;;4994488;28;20656;-67
2022/05/10 12:46:58;;;;;;;5.68;4.80;;;28.10;99.90;;;;;;4994332;28;20201;-67
2022/05/10 12:49:55;;;;;;;5.00;4.45;;;27.90;99.90;;;;;;4994070;28;20283;-67
2022/05/10 12:52:39;;;;;;;8.70;5.18;;;27.60;99.90;;;;;;4994372;28;20204;-67
2022/05/10 12:55:10;;;;;;;5.20;4.55;;;27.50;99.90;;;;;;4994200;28;20209;-67
2022/05/10 12:57:46;;;;;;;6.70;4.78;;;27.50;99.90;;;;;;4994189;28;20201;-67
2022/05/10 13:00:19;;;;;;;5.57;4.95;;;27.50;99.90;;;;;;4993640;28;20608;-67
2022/05/10 13:02:52;;;;;;;5.05;4.32;;;27.20;99.90;;;;;;4994237;28;20663;-67
2022/05/10 13:05:21;;;;;;;5.97;4.30;;;27.20;99.90;;;;;;4993938;28;20186;-67
2022/05/10 13:08:30;;;;;;;5.97;4.57;;;26.90;99.90;;;;;;4993841;28;20255;-67
2022/05/10 13:11:00;;;;;;;5.15;4.65;;;27.00;99.90;;;;;;4944799;28;20243;-67
2022/05/10 13:13:32;;;;;;;6.32;4.30;;;26.80;99.90;;;;;;4993811;28;20255;-67
2022/05/10 13:16:01;;;;;;;6.72;4.65;;;27.10;99.90;;;;;;4993617;28;20283;-68
2022/05/10 13:18:30;;;;;;;7.63;4.88;;;26.60;99.90;;;;;;4993813;28;20224;-67
2022/05/10 13:21:01;;;;;;;7.03;5.20;;;26.80;99.90;;;;;;4993389;28;20533;-67
2022/05/10 13:23:30;;;;;;;5.82;4.82;;;27.00;99.90;;;;;;4993607;28;20197;-67
2022/05/10 13:26:05;;;;;;;5.47;4.82;;;26.70;99.90;;;;;;4993584;28;20212;-66
2022/05/10 13:28:34;;;;;;;6.25;4.40;;;27.00;99.90;;;;;;4993475;28;20315;-67
2022/05/10 13:31:16;;;;;;;5.15;4.28;;;27.10;99.90;;;;;;4993228;28;20679;-67
2022/05/10 13:33:43;;;;;;;8.27;4.47;;;26.90;99.90;;;;;;4993573;28;20282;-67